sensor_id;sensor_type;location;lat;lon;timestamp;pressure;altitude;pressure_sealevel;temperature;humidity
31346;BME280;21711;49.708;18.568;2023-04-23T00:00:10;97000.81;;;9.60;79.79
31346;BME280;21711;49.708;18.568;2023-04-23T00:02:39;97002.16;;;9.58;80.51
31346;BME280;21711;49.708;18.568;2023-04-23T00:05:10;97002.41;;;9.56;80.08
31346;BME280;21711;49.708;18.568;2023-04-23T00:07:39;96993.72;;;9.51;79.93
31346;BME280;21711;49.708;18.568;2023-04-23T00:10:08;96994.78;;;9.50;81.30
31346;BME280;21711;49.708;18.568;2023-04-23T00:12:36;96990.06;;;9.41;80.70
31346;BME280;21711;49.708;18.568;2023-04-23T00:15:06;96995.13;;;9.38;83.12
31346;BME280;21711;49.708;18.568;2023-04-23T00:17:33;96987.22;;;9.32;81.83
31346;BME280;21711;49.708;18.568;2023-04-23T00:20:00;96978.47;;;9.37;83.72
31346;BME280;21711;49.708;18.568;2023-04-23T00:22:28;96983.50;;;9.39;83.44
31346;BME280;21711;49.708;18.568;2023-04-23T00:24:55;96985.88;;;9.40;82.21
31346;BME280;21711;49.708;18.568;2023-04-23T00:27:22;96976.09;;;9.36;83.25
31346;BME280;21711;49.708;18.568;2023-04-23T00:29:50;96977.16;;;9.40;81.42
31346;BME280;21711;49.708;18.568;2023-04-23T00:32:17;96979.28;;;9.38;81.28
31346;BME280;21711;49.708;18.568;2023-04-23T00:34:44;96985.13;;;9.24;82.30
31346;BME280;21711;49.708;18.568;2023-04-23T00:37:14;96979.34;;;9.27;82.07
31346;BME280;21711;49.708;18.568;2023-04-23T00:39:43;96977.22;;;9.24;82.64
31346;BME280;21711;49.708;18.568;2023-04-23T00:42:10;96976.41;;;9.24;81.82
31346;BME280;21711;49.708;18.568;2023-04-23T00:44:39;96979.34;;;9.17;82.00
31346;BME280;21711;49.708;18.568;2023-04-23T00:47:10;96985.19;;;9.08;84.49
31346;BME280;21711;49.708;18.568;2023-04-23T00:49:38;96976.00;;;9.01;85.36
31346;BME280;21711;49.708;18.568;2023-04-23T00:52:05;96969.63;;;9.07;84.07
31346;BME280;21711;49.708;18.568;2023-04-23T00:54:33;96973.84;;;9.13;83.82
31346;BME280;21711;49.708;18.568;2023-04-23T00:57:01;96978.88;;;9.04;85.44
31346;BME280;21711;49.708;18.568;2023-04-23T00:59:29;96977.63;;;8.91;85.64
31346;BME280;21711;49.708;18.568;2023-04-23T01:01:58;96978.13;;;8.93;87.34
31346;BME280;21711;49.708;18.568;2023-04-23T01:04:27;96978.16;;;8.83;85.58
31346;BME280;21711;49.708;18.568;2023-04-23T01:06:57;96984.47;;;8.87;85.98
31346;BME280;21711;49.708;18.568;2023-04-23T01:09:26;96985.81;;;8.85;84.46
31346;BME280;21711;49.708;18.568;2023-04-23T01:11:59;96982.09;;;8.86;85.34
31346;BME280;21711;49.708;18.568;2023-04-23T01:14:28;96983.69;;;8.87;86.25
31346;BME280;21711;49.708;18.568;2023-04-23T01:16:55;96980.84;;;8.67;89.04
31346;BME280;21711;49.708;18.568;2023-04-23T01:19:24;96979.50;;;8.60;87.44
31346;BME280;21711;49.708;18.568;2023-04-23T01:21:52;96984.78;;;8.70;88.30
31346;BME280;21711;49.708;18.568;2023-04-23T01:24:20;96981.59;;;8.68;87.38
31346;BME280;21711;49.708;18.568;2023-04-23T01:26:47;96979.50;;;8.75;87.68
31346;BME280;21711;49.708;18.568;2023-04-23T01:29:15;96979.22;;;8.72;87.40
31346;BME280;21711;49.708;18.568;2023-04-23T01:31:43;96985.06;;;8.63;87.05
31346;BME280;21711;49.708;18.568;2023-04-23T01:34:10;96976.09;;;8.59;87.42
31346;BME280;21711;49.708;18.568;2023-04-23T01:36:38;96983.47;;;8.67;89.34
31346;BME280;21711;49.708;18.568;2023-04-23T01:39:07;96980.06;;;8.57;88.16
31346;BME280;21711;49.708;18.568;2023-04-23T01:41:35;96980.56;;;8.53;87.42
31346;BME280;21711;49.708;18.568;2023-04-23T01:44:03;96975.53;;;8.73;86.09
31346;BME280;21711;49.708;18.568;2023-04-23T01:46:30;96974.47;;;8.74;86.28
31346;BME280;21711;49.708;18.568;2023-04-23T01:48:58;96975.00;;;8.71;87.62
31346;BME280;21711;49.708;18.568;2023-04-23T01:51:25;96971.34;;;8.61;90.19
31346;BME280;21711;49.708;18.568;2023-04-23T01:53:53;96969.50;;;8.62;89.08
31346;BME280;21711;49.708;18.568;2023-04-23T01:56:23;96971.59;;;8.60;88.81
31346;BME280;21711;49.708;18.568;2023-04-23T01:58:51;96969.25;;;8.63;87.18
31346;BME280;21711;49.708;18.568;2023-04-23T02:01:18;96975.56;;;8.57;86.64
31346;BME280;21711;49.708;18.568;2023-04-23T02:03:49;96971.88;;;8.63;87.11
31346;BME280;21711;49.708;18.568;2023-04-23T02:06:17;96973.19;;;8.71;86.04
31346;BME280;21711;49.708;18.568;2023-04-23T02:08:44;96966.06;;;8.61;87.88
31346;BME280;21711;49.708;18.568;2023-04-23T02:11:11;96963.44;;;8.46;86.95
31346;BME280;21711;49.708;18.568;2023-04-23T02:13:39;96960.56;;;8.52;89.83
31346;BME280;21711;49.708;18.568;2023-04-23T02:16:07;96962.13;;;8.59;87.83
31346;BME280;21711;49.708;18.568;2023-04-23T02:18:34;96964.22;;;8.67;86.49
31346;BME280;21711;49.708;18.568;2023-04-23T02:21:01;96962.88;;;8.75;87.26
31346;BME280;21711;49.708;18.568;2023-04-23T02:23:29;96954.72;;;8.71;88.38
31346;BME280;21711;49.708;18.568;2023-04-23T02:25:57;96952.88;;;8.66;86.81
31346;BME280;21711;49.708;18.568;2023-04-23T02:28:24;96956.06;;;8.53;87.81
31346;BME280;21711;49.708;18.568;2023-04-23T02:30:51;96946.06;;;8.55;87.43
31346;BME280;21711;49.708;18.568;2023-04-23T02:33:18;96952.63;;;8.47;88.13
31346;BME280;21711;49.708;18.568;2023-04-23T02:35:46;96955.28;;;8.42;88.19
31346;BME280;21711;49.708;18.568;2023-04-23T02:38:13;96951.59;;;8.38;89.97
31346;BME280;21711;49.708;18.568;2023-04-23T02:40:41;96955.53;;;8.40;87.26
31346;BME280;21711;49.708;18.568;2023-04-23T02:43:08;96951.56;;;8.43;88.71
31346;BME280;21711;49.708;18.568;2023-04-23T02:45:35;96952.66;;;8.52;88.40
31346;BME280;21711;49.708;18.568;2023-04-23T02:48:03;96947.88;;;8.54;88.25
31346;BME280;21711;49.708;18.568;2023-04-23T02:50:30;96950.78;;;8.53;86.97
31346;BME280;21711;49.708;18.568;2023-04-23T02:52:57;96950.25;;;8.46;87.71
31346;BME280;21711;49.708;18.568;2023-04-23T02:55:26;96957.38;;;8.40;88.25
31346;BME280;21711;49.708;18.568;2023-04-23T02:57:58;96951.03;;;8.41;86.80
31346;BME280;21711;49.708;18.568;2023-04-23T03:00:26;96956.59;;;8.39;86.60
31346;BME280;21711;49.708;18.568;2023-04-23T03:02:54;96958.41;;;8.44;87.03
31346;BME280;21711;49.708;18.568;2023-04-23T03:05:22;96954.22;;;8.43;87.61
31346;BME280;21711;49.708;18.568;2023-04-23T03:07:49;96958.69;;;8.42;84.99
31346;BME280;21711;49.708;18.568;2023-04-23T03:10:16;96953.13;;;8.49;84.79
31346;BME280;21711;49.708;18.568;2023-04-23T03:12:44;96955.03;;;8.54;87.13
31346;BME280;21711;49.708;18.568;2023-04-23T03:15:12;96955.00;;;8.59;87.28
31346;BME280;21711;49.708;18.568;2023-04-23T03:17:39;96958.41;;;8.60;85.34
31346;BME280;21711;49.708;18.568;2023-04-23T03:20:08;96959.47;;;8.59;86.83
31346;BME280;21711;49.708;18.568;2023-04-23T03:22:38;96951.56;;;8.64;86.01
31346;BME280;21711;49.708;18.568;2023-04-23T03:25:06;96951.06;;;8.62;83.57
31346;BME280;21711;49.708;18.568;2023-04-23T03:27:34;96943.63;;;8.69;85.06
31346;BME280;21711;49.708;18.568;2023-04-23T03:30:05;96946.56;;;8.73;85.99
31346;BME280;21711;49.708;18.568;2023-04-23T03:32:35;96951.81;;;8.78;84.80
31346;BME280;21711;49.708;18.568;2023-04-23T03:35:03;96951.81;;;8.73;84.42
31346;BME280;21711;49.708;18.568;2023-04-23T03:37:31;96954.38;;;8.93;83.50
31346;BME280;21711;49.708;18.568;2023-04-23T03:39:58;96949.34;;;9.02;82.74
31346;BME280;21711;49.708;18.568;2023-04-23T03:42:28;96948.31;;;8.98;82.17
31346;BME280;21711;49.708;18.568;2023-04-23T03:44:55;96961.22;;;8.94;83.49
31346;BME280;21711;49.708;18.568;2023-04-23T03:47:23;96956.97;;;9.04;82.54
31346;BME280;21711;49.708;18.568;2023-04-23T03:49:50;96954.28;;;9.19;80.87
31346;BME280;21711;49.708;18.568;2023-04-23T03:52:18;96952.91;;;9.32;81.57
31346;BME280;21711;49.708;18.568;2023-04-23T03:54:46;96949.22;;;9.33;78.73
31346;BME280;21711;49.708;18.568;2023-04-23T03:57:17;96956.97;;;9.65;77.43
31346;BME280;21711;49.708;18.568;2023-04-23T03:59:53;96967.19;;;9.77;76.63
31346;BME280;21711;49.708;18.568;2023-04-23T04:02:21;96963.94;;;9.85;76.38
31346;BME280;21711;49.708;18.568;2023-04-23T04:04:51;96964.63;;;10.01;75.45
31346;BME280;21711;49.708;18.568;2023-04-23T04:07:23;96957.88;;;10.19;74.09
31346;BME280;21711;49.708;18.568;2023-04-23T04:09:50;96969.72;;;10.27;76.05
31346;BME280;21711;49.708;18.568;2023-04-23T04:12:17;96962.53;;;10.33;74.93
31346;BME280;21711;49.708;18.568;2023-04-23T04:14:45;96970.38;;;10.48;74.68
31346;BME280;21711;49.708;18.568;2023-04-23T04:17:12;96966.78;;;10.63;73.44
31346;BME280;21711;49.708;18.568;2023-04-23T04:19:42;96970.97;;;10.70;71.31
31346;BME280;21711;49.708;18.568;2023-04-23T04:22:09;96960.75;;;10.82;75.08
31346;BME280;21711;49.708;18.568;2023-04-23T04:24:37;96968.09;;;10.90;73.11
31346;BME280;21711;49.708;18.568;2023-04-23T04:27:04;96966.81;;;11.07;71.59
31346;BME280;21711;49.708;18.568;2023-04-23T04:29:32;96971.91;;;11.47;68.63
31346;BME280;21711;49.708;18.568;2023-04-23T04:31:59;96972.78;;;11.81;67.39
31346;BME280;21711;49.708;18.568;2023-04-23T04:34:27;96972.34;;;12.12;65.20
31346;BME280;21711;49.708;18.568;2023-04-23T04:36:55;96971.75;;;12.48;63.68
31346;BME280;21711;49.708;18.568;2023-04-23T04:39:23;96971.88;;;12.85;62.87
31346;BME280;21711;49.708;18.568;2023-04-23T04:41:50;96969.72;;;13.15;64.25
31346;BME280;21711;49.708;18.568;2023-04-23T04:44:17;96971.84;;;13.41;61.82
31346;BME280;21711;49.708;18.568;2023-04-23T04:46:45;96965.53;;;13.65;61.46
31346;BME280;21711;49.708;18.568;2023-04-23T04:49:12;96968.69;;;13.67;62.70
31346;BME280;21711;49.708;18.568;2023-04-23T04:51:40;96976.09;;;13.57;64.00
31346;BME280;21711;49.708;18.568;2023-04-23T04:54:07;96973.72;;;13.55;62.97
31346;BME280;21711;49.708;18.568;2023-04-23T04:56:35;96974.31;;;13.52;60.88
31346;BME280;21711;49.708;18.568;2023-04-23T04:59:02;96977.16;;;14.15;58.81
31346;BME280;21711;49.708;18.568;2023-04-23T05:01:30;96982.13;;;14.63;57.44
31346;BME280;21711;49.708;18.568;2023-04-23T05:03:58;96976.91;;;14.80;58.35
31346;BME280;21711;49.708;18.568;2023-04-23T05:06:26;96985.81;;;15.16;56.50
31346;BME280;21711;49.708;18.568;2023-04-23T05:08:54;96978.72;;;15.03;54.38
31346;BME280;21711;49.708;18.568;2023-04-23T05:11:22;96980.53;;;15.34;54.35
31346;BME280;21711;49.708;18.568;2023-04-23T05:13:50;96984.03;;;15.87;52.34
31346;BME280;21711;49.708;18.568;2023-04-23T05:16:18;96978.53;;;16.19;51.52
31346;BME280;21711;49.708;18.568;2023-04-23T05:18:45;96985.34;;;16.55;49.24
31346;BME280;21711;49.708;18.568;2023-04-23T05:21:14;96986.44;;;16.63;49.20
31346;BME280;21711;49.708;18.568;2023-04-23T05:23:41;96981.88;;;17.42;48.02
31346;BME280;21711;49.708;18.568;2023-04-23T05:26:08;96978.59;;;18.00;46.76
31346;BME280;21711;49.708;18.568;2023-04-23T05:28:37;96988.66;;;18.71;45.47
31346;BME280;21711;49.708;18.568;2023-04-23T05:31:04;96984.13;;;19.09;43.22
31346;BME280;21711;49.708;18.568;2023-04-23T05:33:31;96983.19;;;19.54;43.20
31346;BME280;21711;49.708;18.568;2023-04-23T05:36:12;96989.16;;;19.76;42.26
31346;BME280;21711;49.708;18.568;2023-04-23T05:38:39;96988.78;;;19.37;41.11
31346;BME280;21711;49.708;18.568;2023-04-23T05:41:07;96986.34;;;19.31;41.16
31346;BME280;21711;49.708;18.568;2023-04-23T05:43:34;96991.56;;;18.90;41.07
31346;BME280;21711;49.708;18.568;2023-04-23T05:46:01;96983.16;;;19.95;41.58
31346;BME280;21711;49.708;18.568;2023-04-23T05:48:30;96989.59;;;20.96;38.46
31346;BME280;21711;49.708;18.568;2023-04-23T05:50:58;96993.53;;;21.35;37.92
31346;BME280;21711;49.708;18.568;2023-04-23T05:53:27;96987.97;;;21.79;36.47
31346;BME280;21711;49.708;18.568;2023-04-23T05:55:54;96989.50;;;22.20;35.46
31346;BME280;21711;49.708;18.568;2023-04-23T05:58:22;96990.91;;;22.33;34.78
31346;BME280;21711;49.708;18.568;2023-04-23T06:00:50;96992.38;;;22.07;34.88
31346;BME280;21711;49.708;18.568;2023-04-23T06:03:19;96990.75;;;22.26;34.90
31346;BME280;21711;49.708;18.568;2023-04-23T06:05:47;96985.94;;;22.55;36.25
31346;BME280;21711;49.708;18.568;2023-04-23T06:08:14;96978.34;;;23.66;33.03
31346;BME280;21711;49.708;18.568;2023-04-23T06:10:42;96992.59;;;24.31;32.03
31346;BME280;21711;49.708;18.568;2023-04-23T06:13:09;96988.28;;;24.64;31.12
31346;BME280;21711;49.708;18.568;2023-04-23T06:15:37;96983.56;;;24.16;31.10
31346;BME280;21711;49.708;18.568;2023-04-23T06:18:04;96992.78;;;25.54;30.17
31346;BME280;21711;49.708;18.568;2023-04-23T06:20:32;97005.13;;;26.33;28.83
31346;BME280;21711;49.708;18.568;2023-04-23T06:22:59;96999.50;;;25.86;28.37
31346;BME280;21711;49.708;18.568;2023-04-23T06:25:28;96998.84;;;26.18;29.11
31346;BME280;21711;49.708;18.568;2023-04-23T06:27:55;96995.06;;;26.48;27.97
31346;BME280;21711;49.708;18.568;2023-04-23T06:30:28;97001.66;;;27.38;27.15
31346;BME280;21711;49.708;18.568;2023-04-23T06:32:55;96991.16;;;27.48;27.07
31346;BME280;21711;49.708;18.568;2023-04-23T06:35:22;96996.59;;;27.48;27.18
31346;BME280;21711;49.708;18.568;2023-04-23T06:37:50;96996.16;;;28.49;26.08
31346;BME280;21711;49.708;18.568;2023-04-23T06:40:17;96997.75;;;28.43;26.53
31346;BME280;21711;49.708;18.568;2023-04-23T06:42:44;96982.03;;;28.09;26.74
31346;BME280;21711;49.708;18.568;2023-04-23T06:45:32;96989.72;;;28.82;25.22
31346;BME280;21711;49.708;18.568;2023-04-23T06:48:00;96984.09;;;28.51;25.43
31346;BME280;21711;49.708;18.568;2023-04-23T06:50:27;96984.97;;;28.40;25.85
31346;BME280;21711;49.708;18.568;2023-04-23T06:52:54;96980.00;;;29.26;24.73
31346;BME280;21711;49.708;18.568;2023-04-23T06:55:22;96982.34;;;29.63;24.34
31346;BME280;21711;49.708;18.568;2023-04-23T06:57:52;96981.19;;;30.26;24.39
31346;BME280;21711;49.708;18.568;2023-04-23T07:00:21;96973.94;;;30.67;23.98
31346;BME280;21711;49.708;18.568;2023-04-23T07:02:48;96978.38;;;31.29;23.59
31346;BME280;21711;49.708;18.568;2023-04-23T07:05:17;96970.50;;;30.39;24.12
31346;BME280;21711;49.708;18.568;2023-04-23T07:07:44;96966.97;;;30.90;21.97
31346;BME280;21711;49.708;18.568;2023-04-23T07:10:12;96966.78;;;30.26;22.88
31346;BME280;21711;49.708;18.568;2023-04-23T07:12:43;96966.00;;;30.25;22.56
31346;BME280;21711;49.708;18.568;2023-04-23T07:15:11;96961.84;;;30.17;22.34
31346;BME280;21711;49.708;18.568;2023-04-23T07:17:38;96972.31;;;30.74;21.07
31346;BME280;21711;49.708;18.568;2023-04-23T07:20:07;96962.94;;;31.43;21.29
31346;BME280;21711;49.708;18.568;2023-04-23T07:22:35;96970.06;;;31.97;20.65
31346;BME280;21711;49.708;18.568;2023-04-23T07:25:02;96959.91;;;31.78;20.60
31346;BME280;21711;49.708;18.568;2023-04-23T07:27:31;96959.75;;;31.65;20.99
31346;BME280;21711;49.708;18.568;2023-04-23T07:29:58;96956.31;;;32.01;21.51
31346;BME280;21711;49.708;18.568;2023-04-23T07:32:27;96952.25;;;31.08;20.91
31346;BME280;21711;49.708;18.568;2023-04-23T07:34:55;96956.53;;;31.70;20.80
31346;BME280;21711;49.708;18.568;2023-04-23T07:37:23;96948.72;;;31.52;20.13
31346;BME280;21711;49.708;18.568;2023-04-23T07:39:50;96945.47;;;31.36;19.69
31346;BME280;21711;49.708;18.568;2023-04-23T07:42:19;96948.16;;;32.67;19.64
31346;BME280;21711;49.708;18.568;2023-04-23T07:44:47;96944.09;;;31.48;20.37
31346;BME280;21711;49.708;18.568;2023-04-23T07:47:14;96943.91;;;32.66;19.60
31346;BME280;21711;49.708;18.568;2023-04-23T07:49:41;96945.97;;;33.09;18.23
31346;BME280;21711;49.708;18.568;2023-04-23T07:52:09;96937.00;;;32.91;17.75
31346;BME280;21711;49.708;18.568;2023-04-23T07:54:37;96937.53;;;33.32;18.67
31346;BME280;21711;49.708;18.568;2023-04-23T07:57:04;96941.91;;;33.85;18.54
31346;BME280;21711;49.708;18.568;2023-04-23T07:59:31;96940.47;;;34.72;17.53
31346;BME280;21711;49.708;18.568;2023-04-23T08:01:59;96937.31;;;34.96;17.16
31346;BME280;21711;49.708;18.568;2023-04-23T08:04:26;96946.78;;;35.84;17.81
31346;BME280;21711;49.708;18.568;2023-04-23T08:06:54;96935.97;;;34.52;17.71
31346;BME280;21711;49.708;18.568;2023-04-23T08:09:21;96926.19;;;32.71;18.71
31346;BME280;21711;49.708;18.568;2023-04-23T08:11:49;96926.81;;;33.38;18.48
31346;BME280;21711;49.708;18.568;2023-04-23T08:14:17;96929.19;;;33.79;18.55
31346;BME280;21711;49.708;18.568;2023-04-23T08:16:45;96930.38;;;34.56;18.21
31346;BME280;21711;49.708;18.568;2023-04-23T08:19:12;96926.16;;;32.88;17.86
31346;BME280;21711;49.708;18.568;2023-04-23T08:21:39;96919.03;;;33.07;18.74
31346;BME280;21711;49.708;18.568;2023-04-23T08:24:07;96921.84;;;34.02;18.55
31346;BME280;21711;49.708;18.568;2023-04-23T08:26:34;96929.91;;;34.09;18.39
31346;BME280;21711;49.708;18.568;2023-04-23T08:29:02;96926.34;;;34.60;18.59
31346;BME280;21711;49.708;18.568;2023-04-23T08:31:31;96925.28;;;35.15;17.35
31346;BME280;21711;49.708;18.568;2023-04-23T08:33:58;96925.16;;;35.19;17.06
31346;BME280;21711;49.708;18.568;2023-04-23T08:36:26;96925.09;;;35.86;17.79
31346;BME280;21711;49.708;18.568;2023-04-23T08:38:53;96922.97;;;34.30;17.56
31346;BME280;21711;49.708;18.568;2023-04-23T08:41:22;96914.72;;;34.04;18.09
31346;BME280;21711;49.708;18.568;2023-04-23T08:46:42;96920.72;;;35.98;16.61
31346;BME280;21711;49.708;18.568;2023-04-23T08:49:16;96919.22;;;36.85;16.84
31346;BME280;21711;49.708;18.568;2023-04-23T08:51:54;96914.28;;;36.52;17.06
31346;BME280;21711;49.708;18.568;2023-04-23T08:54:27;96916.69;;;35.80;16.74
31346;BME280;21711;49.708;18.568;2023-04-23T08:56:55;96906.28;;;35.53;16.16
31346;BME280;21711;49.708;18.568;2023-04-23T08:59:29;96912.38;;;34.55;17.72
31346;BME280;21711;49.708;18.568;2023-04-23T09:01:58;96904.69;;;35.42;15.70
31346;BME280;21711;49.708;18.568;2023-04-23T09:04:28;96904.78;;;35.30;16.59
31346;BME280;21711;49.708;18.568;2023-04-23T09:06:57;96899.59;;;36.45;16.81
31346;BME280;21711;49.708;18.568;2023-04-23T09:09:28;96904.75;;;35.07;16.78
31346;BME280;21711;49.708;18.568;2023-04-23T09:11:56;96896.31;;;34.05;18.34
31346;BME280;21711;49.708;18.568;2023-04-23T09:14:25;96895.88;;;34.19;18.18
31346;BME280;21711;49.708;18.568;2023-04-23T09:16:52;96900.84;;;34.73;16.34
31346;BME280;21711;49.708;18.568;2023-04-23T09:19:20;96899.25;;;36.15;15.91
31346;BME280;21711;49.708;18.568;2023-04-23T09:21:49;96912.69;;;35.82;18.01
31346;BME280;21711;49.708;18.568;2023-04-23T09:24:17;96897.69;;;34.48;17.68
31346;BME280;21711;49.708;18.568;2023-04-23T09:26:46;96909.47;;;34.84;16.38
31346;BME280;21711;49.708;18.568;2023-04-23T09:29:21;96904.44;;;35.82;16.60
31346;BME280;21711;49.708;18.568;2023-04-23T09:31:57;96889.41;;;33.61;17.71
31346;BME280;21711;49.708;18.568;2023-04-23T09:34:28;96886.00;;;33.96;17.89
31346;BME280;21711;49.708;18.568;2023-04-23T09:36:55;96897.50;;;35.13;16.52
31346;BME280;21711;49.708;18.568;2023-04-23T09:39:23;96891.66;;;35.97;16.53
31346;BME280;21711;49.708;18.568;2023-04-23T09:41:51;96895.81;;;37.08;15.59
31346;BME280;21711;49.708;18.568;2023-04-23T09:44:23;96891.06;;;37.00;15.76
31346;BME280;21711;49.708;18.568;2023-04-23T09:46:52;96886.47;;;36.50;14.69
31346;BME280;21711;49.708;18.568;2023-04-23T09:49:19;96888.94;;;34.76;17.04
31346;BME280;21711;49.708;18.568;2023-04-23T09:51:48;96881.19;;;35.73;17.50
31346;BME280;21711;49.708;18.568;2023-04-23T09:54:20;96881.13;;;34.87;17.43
31346;BME280;21711;49.708;18.568;2023-04-23T09:56:53;96880.00;;;35.74;15.99
31346;BME280;21711;49.708;18.568;2023-04-23T09:59:28;96880.06;;;35.61;16.37
31346;BME280;21711;49.708;18.568;2023-04-23T10:02:14;96877.63;;;36.92;14.80
31346;BME280;21711;49.708;18.568;2023-04-23T10:04:42;96869.78;;;36.35;15.49
31346;BME280;21711;49.708;18.568;2023-04-23T10:07:10;96871.50;;;36.97;15.51
31346;BME280;21711;49.708;18.568;2023-04-23T10:09:46;96858.50;;;36.51;16.02
31346;BME280;21711;49.708;18.568;2023-04-23T10:12:14;96854.41;;;35.96;15.96
31346;BME280;21711;49.708;18.568;2023-04-23T10:15:06;96852.97;;;36.42;15.87
31346;BME280;21711;49.708;18.568;2023-04-23T10:17:39;96854.69;;;36.86;16.02
31346;BME280;21711;49.708;18.568;2023-04-23T10:20:08;96846.25;;;36.62;16.93
31346;BME280;21711;49.708;18.568;2023-04-23T10:22:37;96841.53;;;36.62;16.60
31346;BME280;21711;49.708;18.568;2023-04-23T10:25:11;96843.03;;;35.75;16.35
31346;BME280;21711;49.708;18.568;2023-04-23T10:27:44;96841.28;;;35.27;17.63
31346;BME280;21711;49.708;18.568;2023-04-23T10:30:19;96836.53;;;35.91;16.55
31346;BME280;21711;49.708;18.568;2023-04-23T10:32:48;96824.75;;;34.38;17.58
31346;BME280;21711;49.708;18.568;2023-04-23T10:35:15;96825.56;;;34.61;17.28
31346;BME280;21711;49.708;18.568;2023-04-23T10:37:45;96829.84;;;35.29;16.17
31346;BME280;21711;49.708;18.568;2023-04-23T10:40:31;96823.22;;;35.17;16.80
31346;BME280;21711;49.708;18.568;2023-04-23T10:43:00;96812.41;;;33.29;17.72
31346;BME280;21711;49.708;18.568;2023-04-23T10:45:29;96812.19;;;30.47;21.23
31346;BME280;21711;49.708;18.568;2023-04-23T10:47:58;96800.94;;;30.44;21.65
31346;BME280;21711;49.708;18.568;2023-04-23T10:50:33;96811.09;;;31.08;20.81
31346;BME280;21711;49.708;18.568;2023-04-23T10:53:02;96811.75;;;29.45;21.30
31346;BME280;21711;49.708;18.568;2023-04-23T10:55:31;96801.25;;;29.16;22.13
31346;BME280;21711;49.708;18.568;2023-04-23T10:58:04;96797.94;;;28.62;22.10
31346;BME280;21711;49.708;18.568;2023-04-23T11:03:36;96797.19;;;28.62;24.41
31346;BME280;21711;49.708;18.568;2023-04-23T11:12:02;96794.88;;;26.03;28.31
31346;BME280;21711;49.708;18.568;2023-04-23T11:14:48;96790.03;;;25.09;27.04
31346;BME280;21711;49.708;18.568;2023-04-23T11:25:18;96783.97;;;25.41;27.52
31346;BME280;21711;49.708;18.568;2023-04-23T11:27:49;96785.94;;;25.59;26.70
31346;BME280;21711;49.708;18.568;2023-04-23T11:30:28;96785.59;;;26.22;26.97
31346;BME280;21711;49.708;18.568;2023-04-23T11:32:57;96787.25;;;27.95;26.60
31346;BME280;21711;49.708;18.568;2023-04-23T11:35:26;96786.38;;;26.37;26.04
31346;BME280;21711;49.708;18.568;2023-04-23T11:37:55;96788.25;;;25.53;26.96
31346;BME280;21711;49.708;18.568;2023-04-23T11:40:23;96779.75;;;24.59;27.83
31346;BME280;21711;49.708;18.568;2023-04-23T11:42:52;96771.47;;;24.29;29.16
31346;BME280;21711;49.708;18.568;2023-04-23T11:45:26;96772.00;;;24.01;28.35
31346;BME280;21711;49.708;18.568;2023-04-23T11:47:56;96776.97;;;23.95;28.82
31346;BME280;21711;49.708;18.568;2023-04-23T11:50:30;96772.16;;;24.19;28.51
31346;BME280;21711;49.708;18.568;2023-04-23T11:53:09;96771.50;;;23.88;28.57
31346;BME280;21711;49.708;18.568;2023-04-23T11:55:37;96769.72;;;24.07;28.73
31346;BME280;21711;49.708;18.568;2023-04-23T11:58:09;96765.03;;;24.00;28.56
31346;BME280;21711;49.708;18.568;2023-04-23T12:00:37;96768.19;;;24.06;27.93
31346;BME280;21711;49.708;18.568;2023-04-23T12:03:05;96770.75;;;24.40;29.05
31346;BME280;21711;49.708;18.568;2023-04-23T12:05:38;96761.50;;;24.45;29.79
31346;BME280;21711;49.708;18.568;2023-04-23T12:08:19;96769.84;;;24.85;28.33
31346;BME280;21711;49.708;18.568;2023-04-23T12:10:53;96762.06;;;24.79;26.88
31346;BME280;21711;49.708;18.568;2023-04-23T12:13:23;96760.38;;;25.31;27.87
31346;BME280;21711;49.708;18.568;2023-04-23T12:16:00;96762.63;;;25.07;28.48
31346;BME280;21711;49.708;18.568;2023-04-23T12:18:31;96752.28;;;24.49;27.55
31346;BME280;21711;49.708;18.568;2023-04-23T12:21:08;96755.41;;;24.55;28.17
31346;BME280;21711;49.708;18.568;2023-04-23T12:23:41;96759.00;;;24.77;26.21
31346;BME280;21711;49.708;18.568;2023-04-23T12:26:13;96755.47;;;24.69;26.98
31346;BME280;21711;49.708;18.568;2023-04-23T12:28:55;96754.38;;;24.81;27.91
31346;BME280;21711;49.708;18.568;2023-04-23T12:31:27;96759.91;;;25.07;28.08
31346;BME280;21711;49.708;18.568;2023-04-23T12:34:05;96751.41;;;24.30;25.89
31346;BME280;21711;49.708;18.568;2023-04-23T12:36:37;96748.22;;;24.17;26.95
31346;BME280;21711;49.708;18.568;2023-04-23T12:39:24;96743.44;;;24.00;28.76
31346;BME280;21711;49.708;18.568;2023-04-23T12:41:55;96739.72;;;24.15;27.43
31346;BME280;21711;49.708;18.568;2023-04-23T12:44:23;96748.06;;;24.59;29.62
31346;BME280;21711;49.708;18.568;2023-04-23T12:46:59;96750.41;;;25.86;27.35
31346;BME280;21711;49.708;18.568;2023-04-23T12:49:30;96741.88;;;25.77;26.54
31346;BME280;21711;49.708;18.568;2023-04-23T12:52:00;96741.09;;;26.12;27.00
31346;BME280;21711;49.708;18.568;2023-04-23T12:54:33;96737.91;;;25.12;27.67
31346;BME280;21711;49.708;18.568;2023-04-23T12:57:14;96739.97;;;25.73;28.20
31346;BME280;21711;49.708;18.568;2023-04-23T12:59:41;96741.41;;;25.20;27.71
31346;BME280;21711;49.708;18.568;2023-04-23T13:02:09;96736.03;;;25.31;27.65
31346;BME280;21711;49.708;18.568;2023-04-23T13:04:37;96742.56;;;25.23;28.44
31346;BME280;21711;49.708;18.568;2023-04-23T13:07:04;96740.28;;;25.46;28.69
31346;BME280;21711;49.708;18.568;2023-04-23T13:09:31;96732.13;;;25.25;28.75
31346;BME280;21711;49.708;18.568;2023-04-23T13:11:59;96725.34;;;24.64;27.30
31346;BME280;21711;49.708;18.568;2023-04-23T13:14:27;96725.56;;;24.37;26.23
31346;BME280;21711;49.708;18.568;2023-04-23T13:16:54;96728.75;;;24.53;27.35
31346;BME280;21711;49.708;18.568;2023-04-23T13:19:24;96721.31;;;24.32;25.98
31346;BME280;21711;49.708;18.568;2023-04-23T13:21:52;96726.44;;;24.52;28.13